Maplewood, Missouri
Current Conditions -  °F | °C
As of 6:53 PM on Monday 22 Dec 2014 (Local Time) from KCPS Reporting Station
Haze Haze  
Wind Chill: 50°   Ceiling: 700
Heat Index: 50°   Visibility: 4mi
Dew Point: 49°   Wind: 8mph
Humidity: 96%   Direction: 150°SSE
Pressure: 29.54"   Gusts: NA
Location:  38.6118°N, 90.3192°W
Report Text: KCPS 230053Z 15007KT 4SM BR BKN007 OVC014 10/09 A2954 RMK AO2 CIG 004V010 SLP004 T01000094
Loading
Personal Weather Stations






























Interactive Weather Map New forecast layout! Learn more

10-Day Weather Forecast

Advertisements
Track Severe Weather on mobile